sensor_id;sensor_type;location;lat;lon;timestamp;P1;durP1;ratioP1;P2;durP2;ratioP2
17310;SDS011;8773;43.300;0.394;2023-03-16T00:01:04;7.50;;;5.90;;
17310;SDS011;8773;43.300;0.394;2023-03-16T00:03:34;6.80;;;5.67;;
17310;SDS011;8773;43.300;0.394;2023-03-16T00:06:02;6.40;;;5.83;;
17310;SDS011;8773;43.300;0.394;2023-03-16T00:08:30;5.87;;;5.30;;
17310;SDS011;8773;43.300;0.394;2023-03-16T00:10:58;6.47;;;5.13;;
17310;SDS011;8773;43.300;0.394;2023-03-16T00:13:30;8.53;;;5.50;;
17310;SDS011;8773;43.300;0.394;2023-03-16T00:15:59;6.07;;;5.00;;
17310;SDS011;8773;43.300;0.394;2023-03-16T00:18:30;6.30;;;4.97;;
17310;SDS011;8773;43.300;0.394;2023-03-16T00:21:05;8.10;;;5.10;;
17310;SDS011;8773;43.300;0.394;2023-03-16T00:23:34;5.47;;;4.97;;
17310;SDS011;8773;43.300;0.394;2023-03-16T00:26:03;7.63;;;5.40;;
17310;SDS011;8773;43.300;0.394;2023-03-16T00:28:33;5.37;;;4.87;;
17310;SDS011;8773;43.300;0.394;2023-03-16T00:31:02;5.33;;;4.93;;
17310;SDS011;8773;43.300;0.394;2023-03-16T00:33:31;6.40;;;4.50;;
17310;SDS011;8773;43.300;0.394;2023-03-16T00:36:00;5.23;;;4.80;;
17310;SDS011;8773;43.300;0.394;2023-03-16T00:38:35;6.20;;;5.10;;
17310;SDS011;8773;43.300;0.394;2023-03-16T00:41:05;5.10;;;4.70;;
17310;SDS011;8773;43.300;0.394;2023-03-16T00:43:35;5.70;;;5.10;;
17310;SDS011;8773;43.300;0.394;2023-03-16T00:46:07;7.33;;;5.23;;
17310;SDS011;8773;43.300;0.394;2023-03-16T00:48:36;6.13;;;4.70;;
17310;SDS011;8773;43.300;0.394;2023-03-16T00:51:08;5.67;;;4.93;;
17310;SDS011;8773;43.300;0.394;2023-03-16T00:53:40;5.57;;;5.00;;
17310;SDS011;8773;43.300;0.394;2023-03-16T00:56:10;6.73;;;4.73;;
17310;SDS011;8773;43.300;0.394;2023-03-16T00:58:39;5.63;;;5.10;;
17310;SDS011;8773;43.300;0.394;2023-03-16T01:01:09;6.43;;;5.03;;
17310;SDS011;8773;43.300;0.394;2023-03-16T01:03:39;5.30;;;4.80;;
17310;SDS011;8773;43.300;0.394;2023-03-16T01:06:08;8.70;;;4.60;;
17310;SDS011;8773;43.300;0.394;2023-03-16T01:08:45;4.80;;;4.33;;
17310;SDS011;8773;43.300;0.394;2023-03-16T01:11:14;5.20;;;4.50;;
17310;SDS011;8773;43.300;0.394;2023-03-16T01:13:44;5.30;;;4.80;;
17310;SDS011;8773;43.300;0.394;2023-03-16T01:16:16;5.77;;;5.00;;
17310;SDS011;8773;43.300;0.394;2023-03-16T01:18:44;5.47;;;4.33;;
17310;SDS011;8773;43.300;0.394;2023-03-16T01:21:13;5.23;;;4.53;;
17310;SDS011;8773;43.300;0.394;2023-03-16T01:23:41;5.03;;;4.33;;
17310;SDS011;8773;43.300;0.394;2023-03-16T01:26:11;5.67;;;4.47;;
17310;SDS011;8773;43.300;0.394;2023-03-16T01:28:40;4.40;;;4.00;;
17310;SDS011;8773;43.300;0.394;2023-03-16T01:31:10;7.37;;;4.47;;
17310;SDS011;8773;43.300;0.394;2023-03-16T01:33:40;6.23;;;4.57;;
17310;SDS011;8773;43.300;0.394;2023-03-16T01:36:09;5.83;;;4.37;;
17310;SDS011;8773;43.300;0.394;2023-03-16T01:38:39;5.57;;;4.60;;
17310;SDS011;8773;43.300;0.394;2023-03-16T01:41:07;5.27;;;4.40;;
17310;SDS011;8773;43.300;0.394;2023-03-16T01:43:38;5.10;;;3.80;;
17310;SDS011;8773;43.300;0.394;2023-03-16T01:46:14;4.93;;;4.43;;
17310;SDS011;8773;43.300;0.394;2023-03-16T01:48:52;7.47;;;4.80;;
17310;SDS011;8773;43.300;0.394;2023-03-16T01:51:26;5.00;;;4.60;;
17310;SDS011;8773;43.300;0.394;2023-03-16T01:53:58;5.70;;;4.53;;
17310;SDS011;8773;43.300;0.394;2023-03-16T01:56:30;5.53;;;4.30;;
17310;SDS011;8773;43.300;0.394;2023-03-16T01:59:06;4.70;;;4.30;;
17310;SDS011;8773;43.300;0.394;2023-03-16T02:01:37;5.03;;;4.53;;
17310;SDS011;8773;43.300;0.394;2023-03-16T02:04:15;5.57;;;4.73;;
17310;SDS011;8773;43.300;0.394;2023-03-16T02:06:53;7.13;;;4.57;;
17310;SDS011;8773;43.300;0.394;2023-03-16T02:09:24;6.00;;;4.13;;
17310;SDS011;8773;43.300;0.394;2023-03-16T02:11:52;4.93;;;4.30;;
17310;SDS011;8773;43.300;0.394;2023-03-16T02:14:23;5.70;;;4.07;;
17310;SDS011;8773;43.300;0.394;2023-03-16T02:16:53;4.93;;;4.30;;
17310;SDS011;8773;43.300;0.394;2023-03-16T02:19:26;4.37;;;3.97;;
17310;SDS011;8773;43.300;0.394;2023-03-16T02:22:04;6.37;;;4.33;;
17310;SDS011;8773;43.300;0.394;2023-03-16T02:24:34;3.87;;;3.60;;
17310;SDS011;8773;43.300;0.394;2023-03-16T02:27:03;4.73;;;4.23;;
17310;SDS011;8773;43.300;0.394;2023-03-16T02:32:27;4.50;;;4.10;;
17310;SDS011;8773;43.300;0.394;2023-03-16T02:34:58;4.13;;;3.70;;
17310;SDS011;8773;43.300;0.394;2023-03-16T02:37:28;4.10;;;3.70;;
17310;SDS011;8773;43.300;0.394;2023-03-16T02:39:59;4.07;;;3.40;;
17310;SDS011;8773;43.300;0.394;2023-03-16T02:42:27;4.30;;;3.60;;
17310;SDS011;8773;43.300;0.394;2023-03-16T02:44:58;6.63;;;3.70;;
17310;SDS011;8773;43.300;0.394;2023-03-16T02:47:29;3.93;;;3.53;;
17310;SDS011;8773;43.300;0.394;2023-03-16T02:50:02;4.30;;;3.90;;
17310;SDS011;8773;43.300;0.394;2023-03-16T02:52:32;4.30;;;3.60;;
17310;SDS011;8773;43.300;0.394;2023-03-16T02:55:00;3.83;;;3.47;;
17310;SDS011;8773;43.300;0.394;2023-03-16T02:57:28;4.17;;;3.80;;
17310;SDS011;8773;43.300;0.394;2023-03-16T02:59:58;4.07;;;3.70;;
17310;SDS011;8773;43.300;0.394;2023-03-16T03:02:26;4.07;;;3.67;;
17310;SDS011;8773;43.300;0.394;2023-03-16T03:04:54;4.13;;;3.53;;
17310;SDS011;8773;43.300;0.394;2023-03-16T03:07:22;4.50;;;3.60;;
17310;SDS011;8773;43.300;0.394;2023-03-16T03:09:57;4.60;;;3.50;;
17310;SDS011;8773;43.300;0.394;2023-03-16T03:12:28;4.33;;;3.37;;
17310;SDS011;8773;43.300;0.394;2023-03-16T03:14:57;4.10;;;3.50;;
17310;SDS011;8773;43.300;0.394;2023-03-16T03:17:25;3.83;;;3.47;;
17310;SDS011;8773;43.300;0.394;2023-03-16T03:19:56;3.80;;;3.50;;
17310;SDS011;8773;43.300;0.394;2023-03-16T03:22:24;3.90;;;3.43;;
17310;SDS011;8773;43.300;0.394;2023-03-16T03:24:53;4.57;;;3.43;;
17310;SDS011;8773;43.300;0.394;2023-03-16T03:27:21;5.63;;;3.53;;
17310;SDS011;8773;43.300;0.394;2023-03-16T03:29:50;3.60;;;3.30;;
17310;SDS011;8773;43.300;0.394;2023-03-16T03:32:19;4.00;;;3.07;;
17310;SDS011;8773;43.300;0.394;2023-03-16T03:34:47;4.60;;;3.00;;
17310;SDS011;8773;43.300;0.394;2023-03-16T03:37:15;3.40;;;2.77;;
17310;SDS011;8773;43.300;0.394;2023-03-16T03:39:43;3.17;;;2.97;;
17310;SDS011;8773;43.300;0.394;2023-03-16T03:42:12;5.83;;;3.10;;
17310;SDS011;8773;43.300;0.394;2023-03-16T03:44:40;2.90;;;2.70;;
17310;SDS011;8773;43.300;0.394;2023-03-16T03:47:08;3.17;;;2.90;;
17310;SDS011;8773;43.300;0.394;2023-03-16T03:49:37;6.10;;;3.20;;
17310;SDS011;8773;43.300;0.394;2023-03-16T03:52:05;3.87;;;2.70;;
17310;SDS011;8773;43.300;0.394;2023-03-16T03:54:33;4.47;;;3.00;;
17310;SDS011;8773;43.300;0.394;2023-03-16T03:57:04;3.77;;;3.00;;
17310;SDS011;8773;43.300;0.394;2023-03-16T03:59:32;2.90;;;2.70;;
17310;SDS011;8773;43.300;0.394;2023-03-16T04:02:06;3.03;;;2.50;;
17310;SDS011;8773;43.300;0.394;2023-03-16T04:04:34;3.87;;;2.80;;
17310;SDS011;8773;43.300;0.394;2023-03-16T04:07:06;3.80;;;2.73;;
17310;SDS011;8773;43.300;0.394;2023-03-16T04:09:35;3.00;;;2.80;;
17310;SDS011;8773;43.300;0.394;2023-03-16T04:12:03;3.00;;;2.80;;
17310;SDS011;8773;43.300;0.394;2023-03-16T04:14:32;3.30;;;2.77;;
17310;SDS011;8773;43.300;0.394;2023-03-16T04:17:00;2.80;;;2.60;;
17310;SDS011;8773;43.300;0.394;2023-03-16T04:19:30;2.70;;;2.50;;
17310;SDS011;8773;43.300;0.394;2023-03-16T04:21:58;4.37;;;2.70;;
17310;SDS011;8773;43.300;0.394;2023-03-16T04:24:30;2.90;;;2.70;;
17310;SDS011;8773;43.300;0.394;2023-03-16T04:26:59;3.13;;;2.93;;
17310;SDS011;8773;43.300;0.394;2023-03-16T04:29:28;4.67;;;2.70;;
17310;SDS011;8773;43.300;0.394;2023-03-16T04:31:57;4.37;;;2.53;;
17310;SDS011;8773;43.300;0.394;2023-03-16T04:34:25;4.30;;;3.13;;
17310;SDS011;8773;43.300;0.394;2023-03-16T04:36:53;3.47;;;2.73;;
17310;SDS011;8773;43.300;0.394;2023-03-16T04:39:21;2.80;;;2.60;;
17310;SDS011;8773;43.300;0.394;2023-03-16T04:41:58;2.43;;;2.30;;
17310;SDS011;8773;43.300;0.394;2023-03-16T04:44:27;2.27;;;2.17;;
17310;SDS011;8773;43.300;0.394;2023-03-16T04:46:55;2.93;;;2.60;;
17310;SDS011;8773;43.300;0.394;2023-03-16T04:49:24;3.43;;;2.70;;
17310;SDS011;8773;43.300;0.394;2023-03-16T04:51:52;3.87;;;2.50;;
17310;SDS011;8773;43.300;0.394;2023-03-16T04:54:20;4.70;;;2.47;;
17310;SDS011;8773;43.300;0.394;2023-03-16T04:56:48;3.30;;;1.93;;
17310;SDS011;8773;43.300;0.394;2023-03-16T04:59:19;2.13;;;2.03;;
17310;SDS011;8773;43.300;0.394;2023-03-16T05:01:47;3.70;;;2.20;;
17310;SDS011;8773;43.300;0.394;2023-03-16T05:04:15;2.00;;;1.90;;
17310;SDS011;8773;43.300;0.394;2023-03-16T05:06:45;2.57;;;2.37;;
17310;SDS011;8773;43.300;0.394;2023-03-16T05:09:13;2.33;;;2.20;;
17310;SDS011;8773;43.300;0.394;2023-03-16T05:11:51;2.30;;;1.97;;
17310;SDS011;8773;43.300;0.394;2023-03-16T05:14:21;2.60;;;2.07;;
17310;SDS011;8773;43.300;0.394;2023-03-16T05:16:49;2.23;;;2.13;;
17310;SDS011;8773;43.300;0.394;2023-03-16T05:19:18;2.47;;;2.27;;
17310;SDS011;8773;43.300;0.394;2023-03-16T05:21:46;2.67;;;2.20;;
17310;SDS011;8773;43.300;0.394;2023-03-16T05:24:17;2.30;;;2.10;;
17310;SDS011;8773;43.300;0.394;2023-03-16T05:26:52;2.27;;;2.07;;
17310;SDS011;8773;43.300;0.394;2023-03-16T05:29:21;2.53;;;2.33;;
17310;SDS011;8773;43.300;0.394;2023-03-16T05:31:52;2.13;;;2.03;;
17310;SDS011;8773;43.300;0.394;2023-03-16T05:34:20;2.33;;;2.23;;
17310;SDS011;8773;43.300;0.394;2023-03-16T05:36:49;2.97;;;2.77;;
17310;SDS011;8773;43.300;0.394;2023-03-16T05:39:17;3.17;;;2.20;;
17310;SDS011;8773;43.300;0.394;2023-03-16T05:41:45;3.63;;;2.30;;
17310;SDS011;8773;43.300;0.394;2023-03-16T05:44:13;2.83;;;2.57;;
17310;SDS011;8773;43.300;0.394;2023-03-16T05:46:45;2.80;;;2.33;;
17310;SDS011;8773;43.300;0.394;2023-03-16T05:49:16;2.87;;;2.30;;
17310;SDS011;8773;43.300;0.394;2023-03-16T05:51:44;3.10;;;2.40;;
17310;SDS011;8773;43.300;0.394;2023-03-16T05:54:14;2.37;;;2.10;;
17310;SDS011;8773;43.300;0.394;2023-03-16T05:56:42;2.30;;;2.10;;
17310;SDS011;8773;43.300;0.394;2023-03-16T05:59:10;2.60;;;2.40;;
17310;SDS011;8773;43.300;0.394;2023-03-16T06:01:38;2.17;;;2.00;;
17310;SDS011;8773;43.300;0.394;2023-03-16T06:04:41;3.63;;;2.10;;
17310;SDS011;8773;43.300;0.394;2023-03-16T06:07:11;2.33;;;2.10;;
17310;SDS011;8773;43.300;0.394;2023-03-16T06:09:39;3.00;;;1.97;;
17310;SDS011;8773;43.300;0.394;2023-03-16T06:12:07;2.30;;;2.07;;
17310;SDS011;8773;43.300;0.394;2023-03-16T06:14:38;2.40;;;2.20;;
17310;SDS011;8773;43.300;0.394;2023-03-16T06:17:07;2.70;;;2.20;;
17310;SDS011;8773;43.300;0.394;2023-03-16T06:19:35;2.00;;;1.90;;
17310;SDS011;8773;43.300;0.394;2023-03-16T06:22:04;3.47;;;2.03;;
17310;SDS011;8773;43.300;0.394;2023-03-16T06:24:33;2.20;;;2.00;;
17310;SDS011;8773;43.300;0.394;2023-03-16T06:27:01;2.10;;;2.00;;
17310;SDS011;8773;43.300;0.394;2023-03-16T06:29:30;2.40;;;2.20;;
17310;SDS011;8773;43.300;0.394;2023-03-16T06:32:01;2.73;;;2.53;;
17310;SDS011;8773;43.300;0.394;2023-03-16T06:34:30;2.50;;;2.40;;
17310;SDS011;8773;43.300;0.394;2023-03-16T06:37:05;5.83;;;5.27;;
17310;SDS011;8773;43.300;0.394;2023-03-16T06:39:33;2.40;;;2.20;;
17310;SDS011;8773;43.300;0.394;2023-03-16T06:42:01;1.80;;;1.70;;
17310;SDS011;8773;43.300;0.394;2023-03-16T06:44:32;2.60;;;2.40;;
17310;SDS011;8773;43.300;0.394;2023-03-16T06:47:00;9.27;;;8.40;;
17310;SDS011;8773;43.300;0.394;2023-03-16T06:49:29;4.97;;;4.63;;
17310;SDS011;8773;43.300;0.394;2023-03-16T06:51:57;4.40;;;4.10;;
17310;SDS011;8773;43.300;0.394;2023-03-16T06:54:27;2.43;;;2.23;;
17310;SDS011;8773;43.300;0.394;2023-03-16T06:56:57;2.80;;;2.20;;
17310;SDS011;8773;43.300;0.394;2023-03-16T06:59:25;3.70;;;3.50;;
17310;SDS011;8773;43.300;0.394;2023-03-16T07:01:54;3.17;;;2.97;;
17310;SDS011;8773;43.300;0.394;2023-03-16T07:04:22;2.97;;;2.77;;
17310;SDS011;8773;43.300;0.394;2023-03-16T07:06:50;3.77;;;3.47;;
17310;SDS011;8773;43.300;0.394;2023-03-16T07:09:18;3.20;;;1.93;;
17310;SDS011;8773;43.300;0.394;2023-03-16T07:11:48;2.60;;;2.40;;
17310;SDS011;8773;43.300;0.394;2023-03-16T07:14:16;2.63;;;2.43;;
17310;SDS011;8773;43.300;0.394;2023-03-16T07:16:45;2.30;;;1.90;;
17310;SDS011;8773;43.300;0.394;2023-03-16T07:19:13;2.47;;;2.00;;
17310;SDS011;8773;43.300;0.394;2023-03-16T07:21:41;1.87;;;1.80;;
17310;SDS011;8773;43.300;0.394;2023-03-16T07:24:09;2.00;;;2.00;;
17310;SDS011;8773;43.300;0.394;2023-03-16T07:26:38;2.47;;;2.27;;
17310;SDS011;8773;43.300;0.394;2023-03-16T07:29:08;2.27;;;2.10;;
17310;SDS011;8773;43.300;0.394;2023-03-16T07:31:37;2.00;;;1.90;;
17310;SDS011;8773;43.300;0.394;2023-03-16T07:34:05;1.93;;;1.83;;
17310;SDS011;8773;43.300;0.394;2023-03-16T07:36:33;2.07;;;1.93;;
17310;SDS011;8773;43.300;0.394;2023-03-16T07:39:01;1.63;;;1.63;;
17310;SDS011;8773;43.300;0.394;2023-03-16T07:41:30;2.40;;;2.20;;
17310;SDS011;8773;43.300;0.394;2023-03-16T07:43:58;2.37;;;2.17;;
17310;SDS011;8773;43.300;0.394;2023-03-16T07:46:27;3.10;;;2.83;;
17310;SDS011;8773;43.300;0.394;2023-03-16T07:48:55;1.77;;;1.67;;
17310;SDS011;8773;43.300;0.394;2023-03-16T07:51:23;3.30;;;2.13;;
17310;SDS011;8773;43.300;0.394;2023-03-16T07:53:51;2.67;;;1.90;;
17310;SDS011;8773;43.300;0.394;2023-03-16T07:56:19;2.03;;;1.90;;
17310;SDS011;8773;43.300;0.394;2023-03-16T07:58:47;2.47;;;1.60;;
17310;SDS011;8773;43.300;0.394;2023-03-16T08:01:15;2.63;;;2.00;;
17310;SDS011;8773;43.300;0.394;2023-03-16T08:03:45;2.33;;;1.90;;
17310;SDS011;8773;43.300;0.394;2023-03-16T08:06:13;1.87;;;1.77;;
17310;SDS011;8773;43.300;0.394;2023-03-16T08:08:41;2.90;;;2.03;;
17310;SDS011;8773;43.300;0.394;2023-03-16T08:11:09;4.77;;;1.90;;
17310;SDS011;8773;43.300;0.394;2023-03-16T08:13:37;37.03;;;16.70;;
17310;SDS011;8773;43.300;0.394;2023-03-16T08:16:09;44.20;;;20.63;;
17310;SDS011;8773;43.300;0.394;2023-03-16T08:18:39;27.17;;;13.07;;
17310;SDS011;8773;43.300;0.394;2023-03-16T08:21:09;2.73;;;2.27;;
17310;SDS011;8773;43.300;0.394;2023-03-16T08:23:37;3.00;;;1.80;;
17310;SDS011;8773;43.300;0.394;2023-03-16T08:26:05;2.63;;;1.80;;
17310;SDS011;8773;43.300;0.394;2023-03-16T08:28:34;4.30;;;2.57;;
17310;SDS011;8773;43.300;0.394;2023-03-16T08:31:02;25.07;;;11.63;;
17310;SDS011;8773;43.300;0.394;2023-03-16T08:33:34;2.93;;;2.57;;
17310;SDS011;8773;43.300;0.394;2023-03-16T08:36:04;1.97;;;1.40;;
17310;SDS011;8773;43.300;0.394;2023-03-16T08:38:34;4.87;;;2.87;;
17310;SDS011;8773;43.300;0.394;2023-03-16T08:41:02;1.90;;;1.80;;
17310;SDS011;8773;43.300;0.394;2023-03-16T08:43:30;1.63;;;1.53;;
17310;SDS011;8773;43.300;0.394;2023-03-16T08:45:59;2.00;;;1.83;;
17310;SDS011;8773;43.300;0.394;2023-03-16T08:48:29;3.10;;;2.03;;
17310;SDS011;8773;43.300;0.394;2023-03-16T08:51:00;2.40;;;1.97;;
17310;SDS011;8773;43.300;0.394;2023-03-16T08:53:28;2.57;;;2.37;;
17310;SDS011;8773;43.300;0.394;2023-03-16T08:56:01;2.33;;;1.80;;
17310;SDS011;8773;43.300;0.394;2023-03-16T08:58:30;2.37;;;1.97;;
17310;SDS011;8773;43.300;0.394;2023-03-16T09:00:59;1.87;;;1.70;;
17310;SDS011;8773;43.300;0.394;2023-03-16T09:03:28;3.10;;;1.70;;
17310;SDS011;8773;43.300;0.394;2023-03-16T09:05:59;1.83;;;1.73;;
17310;SDS011;8773;43.300;0.394;2023-03-16T09:08:28;1.60;;;1.60;;
17310;SDS011;8773;43.300;0.394;2023-03-16T09:10:59;3.57;;;1.87;;
17310;SDS011;8773;43.300;0.394;2023-03-16T09:13:31;3.37;;;1.60;;
17310;SDS011;8773;43.300;0.394;2023-03-16T09:15:59;2.17;;;1.67;;
17310;SDS011;8773;43.300;0.394;2023-03-16T09:18:28;1.73;;;1.60;;
17310;SDS011;8773;43.300;0.394;2023-03-16T09:20:56;1.67;;;1.33;;
17310;SDS011;8773;43.300;0.394;2023-03-16T09:23:25;4.57;;;2.73;;
17310;SDS011;8773;43.300;0.394;2023-03-16T09:25:56;2.53;;;1.87;;
17310;SDS011;8773;43.300;0.394;2023-03-16T09:28:26;2.00;;;1.30;;
17310;SDS011;8773;43.300;0.394;2023-03-16T09:30:56;1.20;;;1.10;;
17310;SDS011;8773;43.300;0.394;2023-03-16T09:33:24;1.47;;;1.30;;
17310;SDS011;8773;43.300;0.394;2023-03-16T09:35:57;1.90;;;1.40;;
17310;SDS011;8773;43.300;0.394;2023-03-16T09:38:27;1.73;;;1.40;;
17310;SDS011;8773;43.300;0.394;2023-03-16T09:40:56;1.30;;;1.20;;
17310;SDS011;8773;43.300;0.394;2023-03-16T09:43:34;1.67;;;1.40;;
17310;SDS011;8773;43.300;0.394;2023-03-16T09:46:11;1.40;;;1.30;;
17310;SDS011;8773;43.300;0.394;2023-03-16T09:48:47;1.40;;;1.30;;
17310;SDS011;8773;43.300;0.394;2023-03-16T09:51:16;1.47;;;1.30;;
17310;SDS011;8773;43.300;0.394;2023-03-16T09:53:50;2.50;;;2.30;;
17310;SDS011;8773;43.300;0.394;2023-03-16T09:56:26;1.80;;;1.70;;
17310;SDS011;8773;43.300;0.394;2023-03-16T09:59:04;2.37;;;1.60;;
17310;SDS011;8773;43.300;0.394;2023-03-16T10:01:40;2.33;;;1.17;;
17310;SDS011;8773;43.300;0.394;2023-03-16T10:04:21;2.13;;;1.40;;
17310;SDS011;8773;43.300;0.394;2023-03-16T10:07:02;2.43;;;1.27;;
17310;SDS011;8773;43.300;0.394;2023-03-16T10:09:41;2.73;;;1.40;;
17310;SDS011;8773;43.300;0.394;2023-03-16T10:12:14;3.10;;;1.30;;
17310;SDS011;8773;43.300;0.394;2023-03-16T10:14:45;2.40;;;1.30;;
17310;SDS011;8773;43.300;0.394;2023-03-16T10:17:20;1.30;;;1.27;;
17310;SDS011;8773;43.300;0.394;2023-03-16T10:19:54;1.57;;;1.10;;
17310;SDS011;8773;43.300;0.394;2023-03-16T10:22:28;2.40;;;1.30;;
17310;SDS011;8773;43.300;0.394;2023-03-16T10:25:01;2.73;;;1.40;;
17310;SDS011;8773;43.300;0.394;2023-03-16T10:27:34;1.93;;;1.53;;
17310;SDS011;8773;43.300;0.394;2023-03-16T10:30:13;1.50;;;1.40;;
17310;SDS011;8773;43.300;0.394;2023-03-16T10:32:47;1.20;;;1.20;;
17310;SDS011;8773;43.300;0.394;2023-03-16T10:35:20;1.30;;;1.20;;
17310;SDS011;8773;43.300;0.394;2023-03-16T10:37:56;1.23;;;1.20;;
17310;SDS011;8773;43.300;0.394;2023-03-16T10:40:24;1.35;;;1.30;;
17310;SDS011;8773;43.300;0.394;2023-03-16T10:42:53;2.72;;;1.42;;
17310;SDS011;8773;43.300;0.394;2023-03-16T10:45:26;1.38;;;1.27;;
17310;SDS011;8773;43.300;0.394;2023-03-16T10:48:04;1.80;;;1.30;;
17310;SDS011;8773;43.300;0.394;2023-03-16T10:50:33;2.75;;;1.30;;
17310;SDS011;8773;43.300;0.394;2023-03-16T10:53:02;5.35;;;2.50;;
17310;SDS011;8773;43.300;0.394;2023-03-16T10:55:31;4.07;;;1.77;;
17310;SDS011;8773;43.300;0.394;2023-03-16T10:58:09;1.75;;;1.67;;
17310;SDS011;8773;43.300;0.394;2023-03-16T11:00:40;14.27;;;3.45;;
17310;SDS011;8773;43.300;0.394;2023-03-16T11:03:18;10.27;;;2.65;;
17310;SDS011;8773;43.300;0.394;2023-03-16T11:05:55;8.43;;;2.00;;
17310;SDS011;8773;43.300;0.394;2023-03-16T11:08:24;4.07;;;1.70;;
17310;SDS011;8773;43.300;0.394;2023-03-16T11:10:54;2.17;;;1.60;;
17310;SDS011;8773;43.300;0.394;2023-03-16T11:13:26;3.20;;;2.45;;
17310;SDS011;8773;43.300;0.394;2023-03-16T11:16:02;1.92;;;1.40;;
17310;SDS011;8773;43.300;0.394;2023-03-16T11:18:42;2.83;;;1.55;;
17310;SDS011;8773;43.300;0.394;2023-03-16T11:21:16;3.10;;;1.40;;
17310;SDS011;8773;43.300;0.394;2023-03-16T11:23:53;1.00;;;1.00;;
17310;SDS011;8773;43.300;0.394;2023-03-16T11:26:25;3.05;;;2.33;;
17310;SDS011;8773;43.300;0.394;2023-03-16T11:28:59;2.22;;;2.08;;
17310;SDS011;8773;43.300;0.394;2023-03-16T11:31:40;1.13;;;0.90;;
17310;SDS011;8773;43.300;0.394;2023-03-16T11:34:15;2.40;;;1.95;;
17310;SDS011;8773;43.300;0.394;2023-03-16T11:36:46;3.50;;;3.22;;
17310;SDS011;8773;43.300;0.394;2023-03-16T11:42:16;1.10;;;1.00;;
17310;SDS011;8773;43.300;0.394;2023-03-16T11:44:54;1.73;;;1.63;;
17310;SDS011;8773;43.300;0.394;2023-03-16T11:47:31;1.33;;;1.30;;
17310;SDS011;8773;43.300;0.394;2023-03-16T11:50:23;1.08;;;0.90;;
17310;SDS011;8773;43.300;0.394;2023-03-16T11:52:56;1.20;;;1.10;;
17310;SDS011;8773;43.300;0.394;2023-03-16T11:55:33;1.67;;;1.17;;
17310;SDS011;8773;43.300;0.394;2023-03-16T11:58:22;3.92;;;1.40;;
17310;SDS011;8773;43.300;0.394;2023-03-16T12:01:02;1.02;;;1.00;;
17310;SDS011;8773;43.300;0.394;2023-03-16T12:03:43;1.83;;;1.00;;
17310;SDS011;8773;43.300;0.394;2023-03-16T12:06:36;1.05;;;1.02;;
17310;SDS011;8773;43.300;0.394;2023-03-16T12:09:32;1.20;;;0.98;;
17310;SDS011;8773;43.300;0.394;2023-03-16T12:12:16;1.05;;;1.05;;
17310;SDS011;8773;43.300;0.394;2023-03-16T12:14:54;1.38;;;0.98;;
17310;SDS011;8773;43.300;0.394;2023-03-16T12:17:36;0.85;;;0.70;;
17310;SDS011;8773;43.300;0.394;2023-03-16T12:20:09;1.17;;;1.17;;
17310;SDS011;8773;43.300;0.394;2023-03-16T12:22:43;1.05;;;1.05;;
17310;SDS011;8773;43.300;0.394;2023-03-16T12:25:16;0.80;;;0.80;;
17310;SDS011;8773;43.300;0.394;2023-03-16T12:27:48;1.25;;;1.10;;
17310;SDS011;8773;43.300;0.394;2023-03-16T12:30:25;0.77;;;0.77;;
17310;SDS011;8773;43.300;0.394;2023-03-16T12:33:03;1.42;;;1.33;;
17310;SDS011;8773;43.300;0.394;2023-03-16T12:35:39;1.77;;;1.23;;
17310;SDS011;8773;43.300;0.394;2023-03-16T12:38:16;1.40;;;1.30;;
17310;SDS011;8773;43.300;0.394;2023-03-16T12:41:03;2.05;;;1.02;;
17310;SDS011;8773;43.300;0.394;2023-03-16T12:43:51;1.42;;;1.33;;
17310;SDS011;8773;43.300;0.394;2023-03-16T12:46:34;1.35;;;1.25;;
17310;SDS011;8773;43.300;0.394;2023-03-16T12:49:08;1.42;;;1.40;;
17310;SDS011;8773;43.300;0.394;2023-03-16T12:51:37;1.33;;;1.23;;
17310;SDS011;8773;43.300;0.394;2023-03-16T12:54:16;1.50;;;1.27;;
17310;SDS011;8773;43.300;0.394;2023-03-16T12:56:47;1.00;;;1.00;;
17310;SDS011;8773;43.300;0.394;2023-03-16T12:59:17;2.53;;;1.52;;
17310;SDS011;8773;43.300;0.394;2023-03-16T13:01:50;1.27;;;1.17;;
17310;SDS011;8773;43.300;0.394;2023-03-16T13:04:20;1.85;;;1.55;;
17310;SDS011;8773;43.300;0.394;2023-03-16T13:06:58;1.00;;;1.00;;
17310;SDS011;8773;43.300;0.394;2023-03-16T13:09:30;1.30;;;1.20;;
17310;SDS011;8773;43.300;0.394;2023-03-16T13:11:58;1.00;;;1.00;;
17310;SDS011;8773;43.300;0.394;2023-03-16T13:14:35;1.08;;;1.05;;
17310;SDS011;8773;43.300;0.394;2023-03-16T13:19:58;1.25;;;1.25;;
17310;SDS011;8773;43.300;0.394;2023-03-16T13:23:07;1.25;;;1.20;;
17310;SDS011;8773;43.300;0.394;2023-03-16T13:25:57;1.95;;;1.85;;
17310;SDS011;8773;43.300;0.394;2023-03-16T13:28:29;1.33;;;1.23;;
17310;SDS011;8773;43.300;0.394;2023-03-16T13:30:59;1.60;;;1.50;;
17310;SDS011;8773;43.300;0.394;2023-03-16T13:33:31;2.08;;;1.92;;
17310;SDS011;8773;43.300;0.394;2023-03-16T13:36:02;1.50;;;1.40;;
17310;SDS011;8773;43.300;0.394;2023-03-16T13:38:32;2.97;;;1.70;;
17310;SDS011;8773;43.300;0.394;2023-03-16T13:41:02;2.65;;;1.48;;
17310;SDS011;8773;43.300;0.394;2023-03-16T13:43:32;5.47;;;2.20;;
17310;SDS011;8773;43.300;0.394;2023-03-16T13:46:12;2.47;;;1.40;;
17310;SDS011;8773;43.300;0.394;2023-03-16T13:48:43;6.72;;;2.60;;
17310;SDS011;8773;43.300;0.394;2023-03-16T13:51:13;3.33;;;1.65;;
17310;SDS011;8773;43.300;0.394;2023-03-16T13:53:44;1.30;;;1.20;;
17310;SDS011;8773;43.300;0.394;2023-03-16T13:56:12;1.48;;;1.27;;
17310;SDS011;8773;43.300;0.394;2023-03-16T13:58:45;1.15;;;1.02;;
17310;SDS011;8773;43.300;0.394;2023-03-16T14:01:19;1.50;;;1.17;;
17310;SDS011;8773;43.300;0.394;2023-03-16T14:03:54;2.20;;;1.20;;
17310;SDS011;8773;43.300;0.394;2023-03-16T14:06:24;1.50;;;1.40;;
17310;SDS011;8773;43.300;0.394;2023-03-16T14:08:54;1.60;;;1.33;;
17310;SDS011;8773;43.300;0.394;2023-03-16T14:11:26;1.40;;;1.30;;
17310;SDS011;8773;43.300;0.394;2023-03-16T14:13:55;1.20;;;1.10;;
17310;SDS011;8773;43.300;0.394;2023-03-16T14:16:24;1.40;;;1.30;;
17310;SDS011;8773;43.300;0.394;2023-03-16T14:18:57;1.33;;;1.23;;
17310;SDS011;8773;43.300;0.394;2023-03-16T14:21:29;1.50;;;1.40;;
17310;SDS011;8773;43.300;0.394;2023-03-16T14:24:01;1.10;;;1.10;;
17310;SDS011;8773;43.300;0.394;2023-03-16T14:26:38;1.52;;;1.27;;
17310;SDS011;8773;43.300;0.394;2023-03-16T14:29:11;1.17;;;1.17;;
17310;SDS011;8773;43.300;0.394;2023-03-16T14:31:44;2.67;;;1.20;;
17310;SDS011;8773;43.300;0.394;2023-03-16T14:34:21;1.00;;;1.00;;
17310;SDS011;8773;43.300;0.394;2023-03-16T14:37:05;1.13;;;1.02;;
17310;SDS011;8773;43.300;0.394;2023-03-16T14:39:34;1.30;;;1.20;;
17310;SDS011;8773;43.300;0.394;2023-03-16T14:42:03;1.23;;;1.20;;
17310;SDS011;8773;43.300;0.394;2023-03-16T14:44:33;1.00;;;1.00;;
17310;SDS011;8773;43.300;0.394;2023-03-16T14:47:03;1.17;;;0.95;;
17310;SDS011;8773;43.300;0.394;2023-03-16T14:49:35;1.88;;;0.82;;
17310;SDS011;8773;43.300;0.394;2023-03-16T14:52:11;1.65;;;1.10;;
17310;SDS011;8773;43.300;0.394;2023-03-16T14:54:49;0.98;;;0.98;;
17310;SDS011;8773;43.300;0.394;2023-03-16T14:57:17;1.25;;;1.23;;
17310;SDS011;8773;43.300;0.394;2023-03-16T14:59:46;1.27;;;1.20;;
17310;SDS011;8773;43.300;0.394;2023-03-16T15:02:15;1.13;;;1.13;;
17310;SDS011;8773;43.300;0.394;2023-03-16T15:04:47;1.20;;;1.02;;
17310;SDS011;8773;43.300;0.394;2023-03-16T15:07:22;1.13;;;1.13;;
17310;SDS011;8773;43.300;0.394;2023-03-16T15:09:53;1.40;;;1.13;;
17310;SDS011;8773;43.300;0.394;2023-03-16T15:12:23;1.05;;;1.05;;
17310;SDS011;8773;43.300;0.394;2023-03-16T15:14:52;1.30;;;1.20;;
17310;SDS011;8773;43.300;0.394;2023-03-16T15:17:37;1.15;;;1.15;;
17310;SDS011;8773;43.300;0.394;2023-03-16T15:20:08;1.13;;;1.05;;
17310;SDS011;8773;43.300;0.394;2023-03-16T15:22:37;1.13;;;1.05;;
17310;SDS011;8773;43.300;0.394;2023-03-16T15:25:17;1.10;;;1.10;;
17310;SDS011;8773;43.300;0.394;2023-03-16T15:27:48;1.98;;;1.30;;
17310;SDS011;8773;43.300;0.394;2023-03-16T15:30:18;1.50;;;1.30;;
17310;SDS011;8773;43.300;0.394;2023-03-16T15:32:49;1.23;;;1.15;;
17310;SDS011;8773;43.300;0.394;2023-03-16T15:35:19;1.10;;;1.10;;